Time;durP1;ratioP1;P1;durP2;ratioP2;P2;SDS_P1;SDS_P2;PMS_P1;PMS_P2;Temp;Humidity;BMP_temperature;BMP_pressure;BME280_temperature;BME280_humidity;BME280_pressure;Samples;Min_cycle;Max_cycle;Signal;HPM_P1;HPM_P2
2021/05/26 00:01:45;;;;;;;0.10;0.10;;;;;;;;;;5086763;28;20231;-69
2021/05/26 00:04:12;;;;;;;0.10;0.10;;;;;;;;;;5086422;28;20200;-68
2021/05/26 00:06:38;;;;;;;0.10;0.10;;;;;;;;;;5086518;28;20268;-69
2021/05/26 00:09:04;;;;;;;0.10;0.10;;;;;;;;;;5086687;28;20229;-69
2021/05/26 00:11:31;;;;;;;0.10;0.10;;;;;;;;;;5089647;28;20263;-67
2021/05/26 00:13:57;;;;;;;0.10;0.10;;;;;;;;;;5086583;28;20315;-69
2021/05/26 00:16:25;;;;;;;0.10;0.10;;;;;;;;;;5086227;28;20267;-69
2021/05/26 00:18:51;;;;;;;0.10;0.10;;;;;;;;;;5086336;28;20274;-70
2021/05/26 00:21:17;;;;;;;0.10;0.10;;;;;;;;;;5086118;28;20228;-68
2021/05/26 00:23:43;;;;;;;0.10;0.10;;;;;;;;;;5086266;28;20258;-68
2021/05/26 00:26:09;;;;;;;0.10;0.10;;;;;;;;;;5085209;28;20291;-68
2021/05/26 00:28:35;;;;;;;0.10;0.10;;;;;;;;;;5086459;28;20261;-69
2021/05/26 00:31:04;;;;;;;0.10;0.10;;;;;;;;;;5086921;28;20250;-69
2021/05/26 00:33:30;;;;;;;0.10;0.10;;;;;;;;;;5086135;28;20199;-69
2021/05/26 00:35:55;;;;;;;0.10;0.10;;;;;;;;;;5073677;28;20391;-68
2021/05/26 00:38:21;;;;;;;0.10;0.10;;;;;;;;;;5074073;28;20233;-69
2021/05/26 00:40:48;;;;;;;0.17;0.17;;;;;;;;;;5085958;28;20273;-69
2021/05/26 00:43:14;;;;;;;0.10;0.10;;;;;;;;;;5085671;28;20267;-68
2021/05/26 00:45:41;;;;;;;0.10;0.10;;;;;;;;;;5082816;28;20252;-68
2021/05/26 00:48:07;;;;;;;0.10;0.10;;;;;;;;;;5085185;28;20207;-70
2021/05/26 00:50:34;;;;;;;0.10;0.10;;;;;;;;;;5085493;28;20204;-69
2021/05/26 00:53:00;;;;;;;0.10;0.10;;;;;;;;;;5084327;28;20211;-68
2021/05/26 00:55:26;;;;;;;0.10;0.10;;;;;;;;;;5081483;28;20283;-68
2021/05/26 00:57:52;;;;;;;0.10;0.10;;;;;;;;;;5091601;28;20203;-70
2021/05/26 01:00:18;;;;;;;0.10;0.10;;;;;;;;;;5081336;28;20325;-68
2021/05/26 01:02:45;;;;;;;0.10;0.10;;;;;;;;;;5083517;28;20428;-67
2021/05/26 01:05:12;;;;;;;0.10;0.10;;;;;;;;;;5085497;28;20204;-68
2021/05/26 01:07:38;;;;;;;0.10;0.10;;;;;;;;;;5095630;28;20247;-68
2021/05/26 01:10:05;;;;;;;0.10;0.10;;;;;;;;;;5103866;28;20382;-68
2021/05/26 01:12:31;;;;;;;0.10;0.10;;;;;;;;;;5084106;28;20207;-68
2021/05/26 01:14:57;;;;;;;0.10;0.10;;;;;;;;;;5085412;28;20210;-68
2021/05/26 01:17:22;;;;;;;0.10;0.10;;;;;;;;;;5085472;28;20205;-68
2021/05/26 01:19:49;;;;;;;0.10;0.10;;;;;;;;;;5085848;28;20241;-69
2021/05/26 01:22:15;;;;;;;0.10;0.10;;;;;;;;;;5089427;28;20204;-68
2021/05/26 01:24:41;;;;;;;0.10;0.10;;;;;;;;;;5081615;28;20207;-68
2021/05/26 01:27:07;;;;;;;0.10;0.10;;;;;;;;;;5085226;28;20204;-69
2021/05/26 01:29:33;;;;;;;0.10;0.10;;;;;;;;;;5088331;28;20195;-69
2021/05/26 01:32:02;;;;;;;0.17;0.17;;;;;;;;;;5081120;28;20264;-68
2021/05/26 01:34:27;;;;;;;0.10;0.10;;;;;;;;;;5085049;28;20396;-68
2021/05/26 01:36:53;;;;;;;0.10;0.10;;;;;;;;;;5084538;28;20211;-69
2021/05/26 01:39:20;;;;;;;0.10;0.10;;;;;;;;;;5092730;28;20397;-69
2021/05/26 01:41:46;;;;;;;0.10;0.10;;;;;;;;;;5084995;28;20216;-69
2021/05/26 01:44:12;;;;;;;0.10;0.10;;;;;;;;;;5084200;28;20253;-68
2021/05/26 01:46:38;;;;;;;0.10;0.10;;;;;;;;;;5084571;28;20397;-68
2021/05/26 01:49:04;;;;;;;0.57;0.57;;;;;;;;;;5084887;28;20211;-69
2021/05/26 01:51:30;;;;;;;0.10;0.10;;;;;;;;;;5084910;28;20314;-69
2021/05/26 01:53:56;;;;;;;0.10;0.10;;;;;;;;;;5082922;28;20367;-69
2021/05/26 01:56:23;;;;;;;0.10;0.10;;;;;;;;;;5084423;28;20491;-68
2021/05/26 01:58:49;;;;;;;0.10;0.10;;;;;;;;;;5084191;28;20203;-68
2021/05/26 02:01:15;;;;;;;0.10;0.10;;;;;;;;;;5087648;28;20223;-69
2021/05/26 02:03:42;;;;;;;0.10;0.10;;;;;;;;;;5092363;28;20198;-69
2021/05/26 02:06:07;;;;;;;0.10;0.10;;;;;;;;;;5087141;28;20203;-69
2021/05/26 02:08:33;;;;;;;0.10;0.10;;;;;;;;;;5084431;28;20481;-69
2021/05/26 02:13:44;;;;;;;0.10;0.10;;;;;;;;;;5084153;28;20265;-69
2021/05/26 02:16:10;;;;;;;0.10;0.10;;;;;;;;;;5083445;28;20247;-68
2021/05/26 02:18:35;;;;;;;0.20;0.20;;;;;;;;;;5090125;28;20201;-69
2021/05/26 02:21:01;;;;;;;0.10;0.10;;;;;;;;;;5084264;28;20254;-68
2021/05/26 02:23:27;;;;;;;0.10;0.10;;;;;;;;;;5086929;28;20285;-68
2021/05/26 02:25:53;;;;;;;0.10;0.10;;;;;;;;;;5084722;28;20226;-70
2021/05/26 02:28:18;;;;;;;0.10;0.10;;;;;;;;;;5083972;28;20203;-69
2021/05/26 02:30:45;;;;;;;0.10;0.10;;;;;;;;;;5083924;28;20237;-68
2021/05/26 02:33:11;;;;;;;0.10;0.10;;;;;;;;;;5091479;28;20207;-67
2021/05/26 02:35:36;;;;;;;0.10;0.10;;;;;;;;;;5084673;28;20355;-69
2021/05/26 02:38:02;;;;;;;0.10;0.10;;;;;;;;;;5083933;28;20295;-68
2021/05/26 02:40:28;;;;;;;0.10;0.10;;;;;;;;;;5083340;28;20465;-69
2021/05/26 02:42:54;;;;;;;0.10;0.10;;;;;;;;;;5083783;28;20203;-69
2021/05/26 02:45:19;;;;;;;0.10;0.10;;;;;;;;;;5083534;28;20203;-69
2021/05/26 02:47:46;;;;;;;0.10;0.10;;;;;;;;;;5080176;28;20202;-69
2021/05/26 02:50:17;;;;;;;0.10;0.10;;;;;;;;;;5088648;28;20570;-68
2021/05/26 02:52:43;;;;;;;0.10;0.10;;;;;;;;;;5083320;28;20505;-68
2021/05/26 02:55:09;;;;;;;0.10;0.10;;;;;;;;;;5083634;28;20207;-67
2021/05/26 02:57:35;;;;;;;0.10;0.10;;;;;;;;;;5083262;28;20204;-69
2021/05/26 03:00:01;;;;;;;0.10;0.10;;;;;;;;;;5083472;28;20381;-69
2021/05/26 03:02:26;;;;;;;0.10;0.10;;;;;;;;;;5085057;28;20498;-69
2021/05/26 03:04:53;;;;;;;0.10;0.10;;;;;;;;;;5082508;28;20491;-69
2021/05/26 03:07:19;;;;;;;0.10;0.10;;;;;;;;;;5083605;28;20283;-69
2021/05/26 03:09:44;;;;;;;0.20;0.20;;;;;;;;;;5082018;28;20208;-68
2021/05/26 03:12:10;;;;;;;0.20;0.20;;;;;;;;;;5083352;28;20203;-68
2021/05/26 03:14:36;;;;;;;0.13;0.13;;;;;;;;;;5083393;28;20214;-69
2021/05/26 03:17:02;;;;;;;0.20;0.20;;;;;;;;;;5083084;28;20203;-69
2021/05/26 03:19:27;;;;;;;0.20;0.20;;;;;;;;;;5082267;28;20254;-69
2021/05/26 03:21:54;;;;;;;0.10;0.10;;;;;;;;;;5097142;28;20206;-69
2021/05/26 03:24:20;;;;;;;0.10;0.10;;;;;;;;;;5082965;28;20225;-69
2021/05/26 03:26:46;;;;;;;0.10;0.10;;;;;;;;;;5083376;28;20226;-69
2021/05/26 03:29:12;;;;;;;0.10;0.10;;;;;;;;;;5083518;28;20230;-69
2021/05/26 03:31:37;;;;;;;0.10;0.10;;;;;;;;;;5082086;28;20202;-69
2021/05/26 03:34:03;;;;;;;0.10;0.10;;;;;;;;;;5083068;28;20214;-69
2021/05/26 03:36:29;;;;;;;0.10;0.10;;;;;;;;;;5089548;28;20203;-69
2021/05/26 03:38:56;;;;;;;0.10;0.10;;;;;;;;;;5083022;28;20229;-70
2021/05/26 03:41:22;;;;;;;0.10;0.10;;;;;;;;;;5083183;28;20273;-70
2021/05/26 03:43:47;;;;;;;0.10;0.10;;;;;;;;;;5082687;28;20522;-69
2021/05/26 03:46:13;;;;;;;0.10;0.10;;;;;;;;;;5083021;28;20203;-70
2021/05/26 03:48:39;;;;;;;0.10;0.10;;;;;;;;;;5070743;28;20208;-69
2021/05/26 03:51:05;;;;;;;0.10;0.10;;;;;;;;;;5082283;28;20223;-68
2021/05/26 03:53:31;;;;;;;0.10;0.10;;;;;;;;;;5087493;28;20217;-68
2021/05/26 03:55:58;;;;;;;0.10;0.10;;;;;;;;;;5083058;28;20399;-68
2021/05/26 03:58:23;;;;;;;0.10;0.10;;;;;;;;;;5082777;28;20368;-68
2021/05/26 04:00:49;;;;;;;0.10;0.10;;;;;;;;;;5082716;28;20247;-68
2021/05/26 04:03:15;;;;;;;0.10;0.10;;;;;;;;;;5085810;28;20207;-68
2021/05/26 04:05:41;;;;;;;0.10;0.10;;;;;;;;;;5086249;28;20211;-67
2021/05/26 04:08:07;;;;;;;0.10;0.10;;;;;;;;;;5084100;28;20553;-69
2021/05/26 04:10:33;;;;;;;0.20;0.20;;;;;;;;;;5080099;28;20230;-68
2021/05/26 04:12:59;;;;;;;0.10;0.10;;;;;;;;;;5083985;28;20211;-70
2021/05/26 04:15:25;;;;;;;0.10;0.10;;;;;;;;;;5083751;28;20496;-68
2021/05/26 04:17:51;;;;;;;0.10;0.10;;;;;;;;;;5083557;28;20215;-69
2021/05/26 04:20:17;;;;;;;0.10;0.10;;;;;;;;;;5074453;28;20243;-68
2021/05/26 04:22:42;;;;;;;0.10;0.10;;;;;;;;;;5090993;28;20491;-69
2021/05/26 04:25:08;;;;;;;0.10;0.10;;;;;;;;;;5086765;28;20409;-69
2021/05/26 04:27:34;;;;;;;0.10;0.10;;;;;;;;;;5073275;28;20223;-69
2021/05/26 04:30:01;;;;;;;0.10;0.10;;;;;;;;;;5097319;28;20199;-69
2021/05/26 04:32:27;;;;;;;0.20;0.20;;;;;;;;;;5083966;28;20211;-68
2021/05/26 04:34:53;;;;;;;0.10;0.10;;;;;;;;;;5082524;28;20210;-68
2021/05/26 04:37:19;;;;;;;0.10;0.10;;;;;;;;;;5076284;28;20502;-68
2021/05/26 04:39:45;;;;;;;0.10;0.10;;;;;;;;;;5082016;28;20228;-70
2021/05/26 04:42:10;;;;;;;0.10;0.10;;;;;;;;;;5086683;28;20394;-69
2021/05/26 04:44:36;;;;;;;0.10;0.10;;;;;;;;;;5091908;28;20287;-70
2021/05/26 04:47:03;;;;;;;0.10;0.10;;;;;;;;;;5082349;28;20231;-69
2021/05/26 04:49:29;;;;;;;0.10;0.10;;;;;;;;;;5086305;28;20208;-68
2021/05/26 04:51:56;;;;;;;0.10;0.10;;;;;;;;;;5088895;28;20206;-69
2021/05/26 04:54:22;;;;;;;0.10;0.10;;;;;;;;;;5085117;28;20376;-69
2021/05/26 04:56:47;;;;;;;0.10;0.10;;;;;;;;;;5086409;28;20207;-70
2021/05/26 04:59:13;;;;;;;0.10;0.10;;;;;;;;;;5086325;28;20517;-70
2021/05/26 05:01:39;;;;;;;0.10;0.10;;;;;;;;;;5099124;28;20301;-69
2021/05/26 05:04:05;;;;;;;0.10;0.10;;;;;;;;;;5086986;28;20212;-69
2021/05/26 05:06:31;;;;;;;0.10;0.10;;;;;;;;;;5092681;28;20206;-69
2021/05/26 05:08:57;;;;;;;0.10;0.10;;;;;;;;;;5086306;28;20201;-70
2021/05/26 05:11:23;;;;;;;0.10;0.10;;;;;;;;;;5088248;28;20206;-69
2021/05/26 05:13:50;;;;;;;0.10;0.10;;;;;;;;;;5082841;28;20206;-68
2021/05/26 05:16:16;;;;;;;0.10;0.10;;;;;;;;;;5088009;28;20207;-68
2021/05/26 05:18:42;;;;;;;0.10;0.10;;;;;;;;;;5093881;28;20545;-69
2021/05/26 05:21:09;;;;;;;0.10;0.10;;;;;;;;;;5096168;28;20225;-69
2021/05/26 05:23:34;;;;;;;0.10;0.10;;;;;;;;;;5078412;28;20209;-68
2021/05/26 05:26:00;;;;;;;0.23;0.23;;;;;;;;;;5085526;28;20518;-69
2021/05/26 05:28:26;;;;;;;0.10;0.10;;;;;;;;;;5088874;28;20203;-69
2021/05/26 05:30:52;;;;;;;0.10;0.10;;;;;;;;;;5095847;28;20199;-69
2021/05/26 05:33:18;;;;;;;0.10;0.10;;;;;;;;;;5094133;28;20250;-69
2021/05/26 05:35:43;;;;;;;0.10;0.10;;;;;;;;;;5094891;28;20210;-69
2021/05/26 05:38:10;;;;;;;0.10;0.10;;;;;;;;;;5087964;28;20276;-69
2021/05/26 05:40:36;;;;;;;0.10;0.10;;;;;;;;;;5079322;28;20282;-69
2021/05/26 05:43:02;;;;;;;0.10;0.10;;;;;;;;;;5086019;28;20201;-69
2021/05/26 05:45:27;;;;;;;0.10;0.10;;;;;;;;;;5085394;28;20375;-67
2021/05/26 05:47:54;;;;;;;0.10;0.10;;;;;;;;;;5093930;28;20200;-69
2021/05/26 05:50:19;;;;;;;0.10;0.10;;;;;;;;;;5090647;28;20225;-69
2021/05/26 05:52:48;;;;;;;0.10;0.10;;;;;;;;;;5090306;28;20275;-69
2021/05/26 05:55:16;;;;;;;0.10;0.10;;;;;;;;;;5089545;28;20204;-69
2021/05/26 05:57:41;;;;;;;0.10;0.10;;;;;;;;;;5090065;28;20210;-69
2021/05/26 06:00:09;;;;;;;0.10;0.10;;;;;;;;;;5086929;28;20523;-69
2021/05/26 06:02:35;;;;;;;0.10;0.10;;;;;;;;;;5100414;28;20230;-70
2021/05/26 06:05:00;;;;;;;0.10;0.10;;;;;;;;;;5086034;28;20272;-69
2021/05/26 06:07:26;;;;;;;0.10;0.10;;;;;;;;;;5093510;28;21247;-69
2021/05/26 06:09:52;;;;;;;0.10;0.10;;;;;;;;;;5086332;28;20263;-68
2021/05/26 06:12:19;;;;;;;0.10;0.10;;;;;;;;;;5085654;28;20200;-67
2021/05/26 06:14:45;;;;;;;0.10;0.10;;;;;;;;;;5079785;28;20213;-69
2021/05/26 06:17:11;;;;;;;0.10;0.10;;;;;;;;;;5080113;28;20199;-68
2021/05/26 06:19:37;;;;;;;0.10;0.10;;;;;;;;;;5082258;28;20271;-68
2021/05/26 06:22:03;;;;;;;0.10;0.10;;;;;;;;;;5082046;28;20205;-68
2021/05/26 06:24:29;;;;;;;0.10;0.10;;;;;;;;;;5085707;28;20231;-68
2021/05/26 06:26:55;;;;;;;0.10;0.10;;;;;;;;;;5083582;28;20209;-68
2021/05/26 06:29:21;;;;;;;0.10;0.10;;;;;;;;;;5084967;28;20231;-68
2021/05/26 06:31:47;;;;;;;0.10;0.10;;;;;;;;;;5086953;28;20208;-69
2021/05/26 06:34:13;;;;;;;0.10;0.10;;;;;;;;;;5090003;28;20211;-65
2021/05/26 06:36:39;;;;;;;0.20;0.20;;;;;;;;;;5094565;28;20226;-68
2021/05/26 06:39:05;;;;;;;0.10;0.10;;;;;;;;;;5070107;28;20367;-68
2021/05/26 06:41:31;;;;;;;0.20;0.20;;;;;;;;;;5076947;28;20264;-68
2021/05/26 06:43:57;;;;;;;0.10;0.10;;;;;;;;;;5080615;28;20464;-68
2021/05/26 06:46:23;;;;;;;0.10;0.10;;;;;;;;;;5088703;28;20507;-68
2021/05/26 06:48:49;;;;;;;0.10;0.10;;;;;;;;;;5086532;28;20457;-67
2021/05/26 06:51:15;;;;;;;0.10;0.10;;;;;;;;;;5083311;28;20201;-65
2021/05/26 06:53:41;;;;;;;0.10;0.10;;;;;;;;;;5086341;28;20209;-65
2021/05/26 06:56:06;;;;;;;0.10;0.10;;;;;;;;;;5086068;28;20271;-66
2021/05/26 06:58:32;;;;;;;0.10;0.10;;;;;;;;;;5080609;28;20209;-67
2021/05/26 07:00:58;;;;;;;0.10;0.10;;;;;;;;;;5085671;28;20220;-65
2021/05/26 07:03:25;;;;;;;0.10;0.10;;;;;;;;;;5075877;28;20208;-64
2021/05/26 07:05:50;;;;;;;0.10;0.10;;;;;;;;;;5079014;28;20213;-65
2021/05/26 07:08:16;;;;;;;0.10;0.10;;;;;;;;;;5086433;28;20269;-64
2021/05/26 07:10:44;;;;;;;0.10;0.10;;;;;;;;;;5085758;28;20197;-65
2021/05/26 07:13:10;;;;;;;0.10;0.10;;;;;;;;;;5086837;28;20319;-65
2021/05/26 07:15:36;;;;;;;0.10;0.10;;;;;;;;;;5086831;28;20208;-65
2021/05/26 07:18:03;;;;;;;0.10;0.10;;;;;;;;;;5085508;28;20206;-65
2021/05/26 07:20:29;;;;;;;0.10;0.10;;;;;;;;;;5084956;28;20222;-66
2021/05/26 07:22:55;;;;;;;0.10;0.10;;;;;;;;;;5083944;28;20400;-64
2021/05/26 07:25:21;;;;;;;0.10;0.10;;;;;;;;;;5087158;28;20206;-64
2021/05/26 07:27:47;;;;;;;0.10;0.10;;;;;;;;;;5083900;28;20199;-64
2021/05/26 07:30:13;;;;;;;0.10;0.10;;;;;;;;;;5083930;28;20197;-64
2021/05/26 07:32:39;;;;;;;0.10;0.10;;;;;;;;;;5084529;28;20500;-65
2021/05/26 07:35:05;;;;;;;0.10;0.10;;;;;;;;;;5087083;28;20246;-67
2021/05/26 07:37:33;;;;;;;0.10;0.10;;;;;;;;;;5091854;28;20202;-65
2021/05/26 07:39:59;;;;;;;0.10;0.10;;;;;;;;;;5082769;28;20554;-66
2021/05/26 07:42:25;;;;;;;0.10;0.10;;;;;;;;;;5076493;28;20302;-66
2021/05/26 07:44:51;;;;;;;0.10;0.10;;;;;;;;;;5082854;28;20554;-65
2021/05/26 07:47:16;;;;;;;0.10;0.10;;;;;;;;;;5081801;28;20199;-64
2021/05/26 07:49:43;;;;;;;0.10;0.10;;;;;;;;;;5082469;28;20203;-63
2021/05/26 07:52:11;;;;;;;0.10;0.10;;;;;;;;;;5088115;28;20274;-67
2021/05/26 07:54:40;;;;;;;0.10;0.10;;;;;;;;;;5086529;28;20507;-64
2021/05/26 07:57:06;;;;;;;0.10;0.10;;;;;;;;;;5087952;28;20454;-63
2021/05/26 07:59:32;;;;;;;0.10;0.10;;;;;;;;;;5088304;28;20257;-64
2021/05/26 08:01:58;;;;;;;0.10;0.10;;;;;;;;;;5089096;28;20271;-63
2021/05/26 08:04:24;;;;;;;0.10;0.10;;;;;;;;;;5097016;28;20214;-64
2021/05/26 08:06:49;;;;;;;0.10;0.10;;;;;;;;;;5089070;28;20256;-64
2021/05/26 08:09:15;;;;;;;0.10;0.10;;;;;;;;;;5086943;28;20201;-65
2021/05/26 08:11:42;;;;;;;0.10;0.10;;;;;;;;;;5085893;28;20508;-61
2021/05/26 08:14:08;;;;;;;0.10;0.10;;;;;;;;;;5086345;28;20233;-61
2021/05/26 08:16:33;;;;;;;0.10;0.10;;;;;;;;;;5085188;28;20202;-60
2021/05/26 08:18:59;;;;;;;0.10;0.10;;;;;;;;;;5086328;28;20339;-60
2021/05/26 08:21:25;;;;;;;0.10;0.10;;;;;;;;;;5084907;28;20232;-60
2021/05/26 08:23:51;;;;;;;0.10;0.10;;;;;;;;;;5085842;28;20571;-60
2021/05/26 08:26:21;;;;;;;0.10;0.10;;;;;;;;;;5087663;28;20286;-61
2021/05/26 08:28:47;;;;;;;0.10;0.10;;;;;;;;;;5085221;28;20259;-60
2021/05/26 08:31:13;;;;;;;0.10;0.10;;;;;;;;;;5085655;28;20201;-62
2021/05/26 08:33:40;;;;;;;0.10;0.10;;;;;;;;;;5083527;28;20248;-61
2021/05/26 08:36:06;;;;;;;0.10;0.10;;;;;;;;;;5084224;28;20552;-60
2021/05/26 08:38:32;;;;;;;0.10;0.10;;;;;;;;;;5085852;28;20233;-62
2021/05/26 08:40:58;;;;;;;0.10;0.10;;;;;;;;;;5092397;28;20238;-62
2021/05/26 08:43:24;;;;;;;0.10;0.10;;;;;;;;;;5079839;28;20210;-62
2021/05/26 08:45:51;;;;;;;0.10;0.10;;;;;;;;;;5086002;28;20230;-62
2021/05/26 08:48:17;;;;;;;0.10;0.10;;;;;;;;;;5084823;28;20256;-61
2021/05/26 08:50:45;;;;;;;0.10;0.10;;;;;;;;;;5083833;28;20199;-61
2021/05/26 08:53:11;;;;;;;0.07;0.07;;;;;;;;;;5091655;28;20499;-60
2021/05/26 08:55:37;;;;;;;0.10;0.10;;;;;;;;;;5088595;28;20207;-62
2021/05/26 08:58:03;;;;;;;0.10;0.10;;;;;;;;;;5085447;28;20520;-61
2021/05/26 09:00:29;;;;;;;0.10;0.10;;;;;;;;;;5085330;28;20219;-63
2021/05/26 09:02:56;;;;;;;0.10;0.10;;;;;;;;;;5085442;28;20393;-62
2021/05/26 09:05:22;;;;;;;0.10;0.10;;;;;;;;;;5085548;28;20215;-62
2021/05/26 09:07:48;;;;;;;0.10;0.10;;;;;;;;;;5084215;28;20276;-62
2021/05/26 09:10:15;;;;;;;0.10;0.10;;;;;;;;;;5090244;28;20396;-62
2021/05/26 09:12:42;;;;;;;0.10;0.10;;;;;;;;;;5081207;28;20206;-62
2021/05/26 09:15:08;;;;;;;0.10;0.10;;;;;;;;;;5085139;28;20229;-60
2021/05/26 09:17:34;;;;;;;0.10;0.10;;;;;;;;;;5090400;28;20202;-59
2021/05/26 09:20:15;;;;;;;0.10;0.10;;;;;;;;;;5078551;28;20230;-60
2021/05/26 09:22:56;;;;;;;0.10;0.10;;;;;;;;;;5075657;28;20489;-62
2021/05/26 09:25:22;;;;;;;0.10;0.10;;;;;;;;;;5080678;28;20512;-62
2021/05/26 09:27:48;;;;;;;0.10;0.10;;;;;;;;;;5084954;28;20202;-61
2021/05/26 09:30:13;;;;;;;0.10;0.10;;;;;;;;;;5084779;28;20298;-61
2021/05/26 09:32:39;;;;;;;0.10;0.10;;;;;;;;;;5085021;28;20483;-61
2021/05/26 09:35:08;;;;;;;0.10;0.10;;;;;;;;;;5083921;28;20207;-62
2021/05/26 09:37:37;;;;;;;0.10;0.10;;;;;;;;;;5089390;28;20423;-62
2021/05/26 09:40:06;;;;;;;0.10;0.10;;;;;;;;;;5084595;28;20218;-65
2021/05/26 09:42:35;;;;;;;0.10;0.10;;;;;;;;;;5082447;28;20566;-65
2021/05/26 09:45:09;;;;;;;0.10;0.10;;;;;;;;;;5084720;28;20226;-65
2021/05/26 09:47:35;;;;;;;0.10;0.10;;;;;;;;;;5085213;28;20236;-65
2021/05/26 09:50:14;;;;;;;0.10;0.10;;;;;;;;;;5088520;28;20205;-65
2021/05/26 09:52:51;;;;;;;0.10;0.10;;;;;;;;;;5081037;28;20203;-65
2021/05/26 09:55:20;;;;;;;0.10;0.10;;;;;;;;;;5084191;28;20202;-65
2021/05/26 09:57:49;;;;;;;0.10;0.10;;;;;;;;;;5079345;28;20206;-64
2021/05/26 10:00:15;;;;;;;0.10;0.10;;;;;;;;;;5086814;28;20234;-67
2021/05/26 10:02:40;;;;;;;0.10;0.10;;;;;;;;;;5078189;28;20199;-65
2021/05/26 10:05:07;;;;;;;0.10;0.10;;;;;;;;;;5084006;28;20206;-68
2021/05/26 10:07:33;;;;;;;0.10;0.10;;;;;;;;;;5083938;28;20302;-65
2021/05/26 10:09:59;;;;;;;0.17;0.13;;;;;;;;;;5078046;28;20226;-65
2021/05/26 10:12:26;;;;;;;0.10;0.10;;;;;;;;;;5084160;28;20279;-65
2021/05/26 10:14:53;;;;;;;0.10;0.10;;;;;;;;;;5084271;28;20214;-66
2021/05/26 10:17:22;;;;;;;0.20;0.20;;;;;;;;;;5084054;28;20612;-64
2021/05/26 10:19:49;;;;;;;0.00;0.00;;;;;;;;;;5083440;28;20513;-65
2021/05/26 10:22:14;;;;;;;0.10;0.10;;;;;;;;;;5083209;28;20293;-66
2021/05/26 10:24:44;;;;;;;0.10;0.10;;;;;;;;;;5083299;28;20203;-64
2021/05/26 10:27:11;;;;;;;0.10;0.10;;;;;;;;;;5084315;28;20253;-64
2021/05/26 10:29:40;;;;;;;0.10;0.10;;;;;;;;;;5092343;28;20552;-66
2021/05/26 10:32:07;;;;;;;0.10;0.10;;;;;;;;;;5083609;28;20198;-64
2021/05/26 10:34:51;;;;;;;0.10;0.10;;;;;;;;;;5083789;28;20203;-66
2021/05/26 10:37:24;;;;;;;0.10;0.10;;;;;;;;;;5068076;28;20216;-64
2021/05/26 10:39:50;;;;;;;0.10;0.10;;;;;;;;;;5072458;28;20219;-64
2021/05/26 10:42:25;;;;;;;0.10;0.10;;;;;;;;;;5082610;28;20217;-63
2021/05/26 10:44:55;;;;;;;0.10;0.10;;;;;;;;;;5087192;28;20385;-65
2021/05/26 10:47:41;;;;;;;0.10;0.10;;;;;;;;;;5076004;28;20393;-68
2021/05/26 10:50:14;;;;;;;0.10;0.10;;;;;;;;;;5088062;28;20413;-68
2021/05/26 10:52:55;;;;;;;0.20;0.20;;;;;;;;;;5080029;28;20201;-68
2021/05/26 10:55:34;;;;;;;0.50;0.50;;;;;;;;;;5089767;28;20242;-69
2021/05/26 10:58:11;;;;;;;0.10;0.10;;;;;;;;;;5078230;28;20284;-67
2021/05/26 11:00:37;;;;;;;0.10;0.10;;;;;;;;;;5084692;28;20269;-68
2021/05/26 11:03:18;;;;;;;0.10;0.10;;;;;;;;;;5090254;28;20220;-69
2021/05/26 11:05:44;;;;;;;0.10;0.10;;;;;;;;;;5064482;28;20209;-69
2021/05/26 11:08:25;;;;;;;0.10;0.10;;;;;;;;;;5089817;28;20230;-68
2021/05/26 11:10:50;;;;;;;0.10;0.10;;;;;;;;;;5079513;28;20217;-68
2021/05/26 11:13:17;;;;;;;0.10;0.10;;;;;;;;;;5089398;28;20529;-67
2021/05/26 11:15:44;;;;;;;0.10;0.10;;;;;;;;;;5081296;28;20208;-68
2021/05/26 11:18:10;;;;;;;0.10;0.10;;;;;;;;;;5083714;28;20222;-70
2021/05/26 11:20:36;;;;;;;0.10;0.10;;;;;;;;;;5078999;28;20612;-68
2021/05/26 11:23:09;;;;;;;0.10;0.10;;;;;;;;;;5079160;28;20370;-68
2021/05/26 11:25:35;;;;;;;0.10;0.10;;;;;;;;;;5081716;28;20274;-69
2021/05/26 11:28:01;;;;;;;0.10;0.10;;;;;;;;;;5081237;28;20230;-68
2021/05/26 11:30:27;;;;;;;0.40;0.40;;;;;;;;;;5076618;28;20210;-67
2021/05/26 11:32:54;;;;;;;0.10;0.10;;;;;;;;;;5086936;28;20215;-69
2021/05/26 11:35:19;;;;;;;0.10;0.10;;;;;;;;;;5088616;28;20248;-68
2021/05/26 11:37:45;;;;;;;0.10;0.10;;;;;;;;;;5095877;28;20226;-68
2021/05/26 11:40:19;;;;;;;0.10;0.10;;;;;;;;;;5083753;28;20216;-68
2021/05/26 11:42:45;;;;;;;0.10;0.10;;;;;;;;;;5085191;28;20205;-67
2021/05/26 11:45:11;;;;;;;0.10;0.10;;;;;;;;;;5091853;28;20203;-68
2021/05/26 11:47:39;;;;;;;0.10;0.10;;;;;;;;;;5086743;28;20219;-68
2021/05/26 11:50:19;;;;;;;0.10;0.10;;;;;;;;;;5091839;28;20210;-68
2021/05/26 11:52:46;;;;;;;0.10;0.10;;;;;;;;;;5094675;28;20253;-67
2021/05/26 11:55:12;;;;;;;0.10;0.10;;;;;;;;;;5090482;28;20268;-68
2021/05/26 11:57:38;;;;;;;0.10;0.10;;;;;;;;;;5086048;28;20288;-68
2021/05/26 12:00:05;;;;;;;0.10;0.10;;;;;;;;;;5084417;28;20396;-66
2021/05/26 12:02:31;;;;;;;0.00;0.00;;;;;;;;;;5094529;28;20204;-68
2021/05/26 12:04:59;;;;;;;0.10;0.10;;;;;;;;;;5088066;28;20276;-68
2021/05/26 12:07:25;;;;;;;0.10;0.10;;;;;;;;;;5085711;28;20247;-68
2021/05/26 12:09:54;;;;;;;0.10;0.10;;;;;;;;;;5086752;28;20207;-70
2021/05/26 12:12:21;;;;;;;0.10;0.10;;;;;;;;;;5084199;28;20213;-66
2021/05/26 12:14:47;;;;;;;0.10;0.10;;;;;;;;;;5082929;28;20205;-67
2021/05/26 12:17:14;;;;;;;0.10;0.10;;;;;;;;;;5092419;28;20216;-68
2021/05/26 12:19:40;;;;;;;0.10;0.10;;;;;;;;;;5088342;28;20528;-65
2021/05/26 12:22:14;;;;;;;0.10;0.10;;;;;;;;;;5086038;28;20301;-68
2021/05/26 12:24:58;;;;;;;0.10;0.10;;;;;;;;;;5085669;28;20550;-67
2021/05/26 12:27:31;;;;;;;0.10;0.10;;;;;;;;;;5082774;28;20520;-67
2021/05/26 12:30:10;;;;;;;0.10;0.10;;;;;;;;;;5086039;28;20216;-69
2021/05/26 12:32:36;;;;;;;0.30;0.30;;;;;;;;;;5093490;28;20211;-68
2021/05/26 12:35:02;;;;;;;0.10;0.10;;;;;;;;;;5091015;28;20225;-67
2021/05/26 12:37:46;;;;;;;0.10;0.10;;;;;;;;;;5080921;28;20202;-68
2021/05/26 12:40:17;;;;;;;0.10;0.10;;;;;;;;;;5075311;28;20215;-70
2021/05/26 12:42:44;;;;;;;0.07;0.07;;;;;;;;;;5083495;28;20215;-68
2021/05/26 12:45:17;;;;;;;0.10;0.10;;;;;;;;;;5080144;28;20373;-67
2021/05/26 12:47:43;;;;;;;0.00;0.00;;;;;;;;;;5088154;28;20284;-69
2021/05/26 12:50:10;;;;;;;0.10;0.10;;;;;;;;;;5074966;28;20208;-67
2021/05/26 12:52:36;;;;;;;0.10;0.10;;;;;;;;;;5096468;28;20205;-68
2021/05/26 12:55:05;;;;;;;0.10;0.10;;;;;;;;;;5087185;28;20210;-69
2021/05/26 12:57:32;;;;;;;0.10;0.10;;;;;;;;;;5089068;28;20217;-68
2021/05/26 12:59:59;;;;;;;0.10;0.10;;;;;;;;;;5085625;28;20206;-67
2021/05/26 13:02:29;;;;;;;0.10;0.10;;;;;;;;;;5079574;28;20552;-68
2021/05/26 13:04:55;;;;;;;0.10;0.10;;;;;;;;;;5075070;28;20218;-68
2021/05/26 13:07:24;;;;;;;0.10;0.10;;;;;;;;;;5087726;28;20229;-68
2021/05/26 13:09:50;;;;;;;0.10;0.10;;;;;;;;;;5086668;28;20203;-68
2021/05/26 13:12:22;;;;;;;0.00;0.00;;;;;;;;;;5080010;28;20239;-68
2021/05/26 13:14:49;;;;;;;0.10;0.10;;;;;;;;;;5091721;28;20268;-69
2021/05/26 13:17:15;;;;;;;0.10;0.10;;;;;;;;;;5084958;28;20228;-69
2021/05/26 13:19:41;;;;;;;0.10;0.10;;;;;;;;;;5084747;28;20226;-69
2021/05/26 13:22:06;;;;;;;0.10;0.10;;;;;;;;;;5087181;28;20229;-69
2021/05/26 13:24:32;;;;;;;0.10;0.10;;;;;;;;;;5083669;28;20504;-69
2021/05/26 13:26:58;;;;;;;0.10;0.10;;;;;;;;;;5082679;28;20207;-68
2021/05/26 13:29:24;;;;;;;0.10;0.10;;;;;;;;;;5084892;28;20474;-68
2021/05/26 13:31:51;;;;;;;0.00;0.00;;;;;;;;;;5079438;28;20207;-68
2021/05/26 13:34:17;;;;;;;0.10;0.10;;;;;;;;;;5085441;28;20376;-68
2021/05/26 13:36:44;;;;;;;0.07;0.07;;;;;;;;;;5086107;28;20486;-67
2021/05/26 13:39:10;;;;;;;0.03;0.03;;;;;;;;;;5079129;28;20240;-69
2021/05/26 13:41:36;;;;;;;0.10;0.10;;;;;;;;;;5086898;28;20266;-68
2021/05/26 13:44:02;;;;;;;0.10;0.10;;;;;;;;;;5081449;28;20563;-70
2021/05/26 13:46:28;;;;;;;0.10;0.10;;;;;;;;;;5081449;28;20202;-68
2021/05/26 13:48:55;;;;;;;0.10;0.10;;;;;;;;;;5087258;28;20210;-69
2021/05/26 13:51:21;;;;;;;0.10;0.10;;;;;;;;;;5081200;28;20208;-69
2021/05/26 13:53:47;;;;;;;0.10;0.10;;;;;;;;;;5074260;28;20236;-69
2021/05/26 13:56:13;;;;;;;0.10;0.10;;;;;;;;;;5081313;28;20327;-69
2021/05/26 13:58:40;;;;;;;0.10;0.10;;;;;;;;;;5083525;28;20272;-70
2021/05/26 14:01:06;;;;;;;0.10;0.10;;;;;;;;;;5098171;28;20220;-70
2021/05/26 14:03:32;;;;;;;0.10;0.10;;;;;;;;;;5083234;28;20257;-71
2021/05/26 14:05:58;;;;;;;0.10;0.10;;;;;;;;;;5088458;28;20204;-70
2021/05/26 14:08:25;;;;;;;0.10;0.10;;;;;;;;;;5077008;28;20303;-69
2021/05/26 14:10:51;;;;;;;0.03;0.03;;;;;;;;;;5085105;28;20518;-69
2021/05/26 14:13:17;;;;;;;0.10;0.10;;;;;;;;;;5085912;28;20213;-70
2021/05/26 14:15:43;;;;;;;0.10;0.10;;;;;;;;;;5080998;28;20211;-71
2021/05/26 14:18:09;;;;;;;0.10;0.10;;;;;;;;;;5083530;28;20214;-70
2021/05/26 14:20:35;;;;;;;0.00;0.00;;;;;;;;;;5077197;28;20294;-70
2021/05/26 14:23:01;;;;;;;0.10;0.10;;;;;;;;;;5083661;28;20212;-70
2021/05/26 14:25:30;;;;;;;0.30;0.27;;;;;;;;;;5080273;28;20206;-69
2021/05/26 14:27:56;;;;;;;0.07;0.07;;;;;;;;;;5083116;28;20368;-69
2021/05/26 14:30:22;;;;;;;0.10;0.10;;;;;;;;;;5081694;28;20227;-69
2021/05/26 14:32:48;;;;;;;0.10;0.10;;;;;;;;;;5081796;28;20207;-69
2021/05/26 14:35:17;;;;;;;0.00;0.00;;;;;;;;;;5083683;28;20204;-71
2021/05/26 14:37:47;;;;;;;0.10;0.10;;;;;;;;;;5083312;28;20407;-70
2021/05/26 14:40:15;;;;;;;0.00;0.00;;;;;;;;;;5092274;28;20226;-72
2021/05/26 14:42:41;;;;;;;0.00;0.00;;;;;;;;;;5075857;28;20203;-71
2021/05/26 14:45:08;;;;;;;0.10;0.10;;;;;;;;;;5100109;28;20335;-70